Time;durP1;ratioP1;P1;durP2;ratioP2;P2;SDS_P1;SDS_P2;PMS_P1;PMS_P2;Temp;Humidity;BMP_temperature;BMP_pressure;BME280_temperature;BME280_humidity;BME280_pressure;Samples;Min_cycle;Max_cycle;Signal;HPM_P1;HPM_P2
2022/10/18 00:02:39;;;;;;;8.35;3.85;;;;;;;;;;9925714;29;20081;-66
2022/10/18 00:07:37;;;;;;;6.40;4.40;;;;;;;;;;9925393;29;20076;-65
2022/10/18 00:12:37;;;;;;;10.50;4.50;;;;;;;;;;9925123;29;20084;-66
2022/10/18 00:17:36;;;;;;;5.88;4.70;;;;;;;;;;9927842;29;20072;-66
2022/10/18 00:22:34;;;;;;;5.15;4.57;;;;;;;;;;9930979;29;20080;-66
2022/10/18 00:27:33;;;;;;;8.93;4.68;;;;;;;;;;9928672;29;20081;-65
2022/10/18 00:32:35;;;;;;;6.50;3.95;;;;;;;;;;9924539;29;20077;-66
2022/10/18 00:37:34;;;;;;;7.47;4.47;;;;;;;;;;9924914;29;20095;-66
2022/10/18 00:42:33;;;;;;;7.10;4.78;;;;;;;;;;9924901;29;20084;-66
2022/10/18 00:47:34;;;;;;;6.93;5.28;;;;;;;;;;9924163;29;20080;-66
2022/10/18 00:52:34;;;;;;;8.55;5.18;;;;;;;;;;9925081;29;20077;-66
2022/10/18 00:57:33;;;;;;;9.55;5.95;;;;;;;;;;9923655;29;20085;-66
2022/10/18 01:02:32;;;;;;;7.93;6.90;;;;;;;;;;9924988;29;20073;-67
2022/10/18 01:07:37;;;;;;;12.65;7.80;;;;;;;;;;9929093;29;20084;-67
2022/10/18 01:12:39;;;;;;;9.95;7.47;;;;;;;;;;9924177;29;20541;-65
2022/10/18 01:17:50;;;;;;;10.27;6.72;;;;;;;;;;9924420;29;20076;-67
2022/10/18 01:22:50;;;;;;;10.02;4.90;;;;;;;;;;9923656;29;20083;-67
2022/10/18 01:27:56;;;;;;;5.85;4.68;;;;;;;;;;9925247;29;20124;-66
2022/10/18 01:33:00;;;;;;;8.13;4.32;;;;;;;;;;9924230;29;20076;-66
2022/10/18 01:38:00;;;;;;;6.03;4.35;;;;;;;;;;9923542;29;20072;-66
2022/10/18 01:42:59;;;;;;;7.00;4.38;;;;;;;;;;9922429;29;20089;-66
2022/10/18 01:48:02;;;;;;;5.00;3.88;;;;;;;;;;9923655;29;20084;-66
2022/10/18 01:53:00;;;;;;;6.30;3.97;;;;;;;;;;9921457;29;20076;-66
2022/10/18 01:58:03;;;;;;;6.22;4.50;;;;;;;;;;9924683;29;20072;-65
2022/10/18 02:03:05;;;;;;;9.40;5.80;;;;;;;;;;9921416;29;20091;-67
2022/10/18 02:08:06;;;;;;;9.20;5.30;;;;;;;;;;9923658;29;20100;-66
2022/10/18 02:13:21;;;;;;;9.60;6.05;;;;;;;;;;9925051;29;20084;-66
2022/10/18 02:18:25;;;;;;;7.07;5.18;;;;;;;;;;9922268;29;20076;-67
2022/10/18 02:23:25;;;;;;;6.07;5.45;;;;;;;;;;9932711;29;20073;-66
2022/10/18 02:28:24;;;;;;;7.78;4.93;;;;;;;;;;9927373;29;20084;-66
2022/10/18 02:33:32;;;;;;;6.35;4.57;;;;;;;;;;9927465;29;20467;-65
2022/10/18 02:38:31;;;;;;;5.35;4.47;;;;;;;;;;9929786;29;20110;-66
2022/10/18 02:43:29;;;;;;;16.02;6.88;;;;;;;;;;9930665;29;20069;-66
2022/10/18 02:48:31;;;;;;;7.47;6.55;;;;;;;;;;9926677;29;20073;-66
2022/10/18 02:53:29;;;;;;;10.18;6.95;;;;;;;;;;9928665;29;20076;-66
2022/10/18 02:58:27;;;;;;;12.65;7.32;;;;;;;;;;9929407;29;20072;-66
2022/10/18 03:03:25;;;;;;;10.70;6.03;;;;;;;;;;9925355;29;20087;-65
2022/10/18 03:08:25;;;;;;;8.90;5.35;;;;;;;;;;9923700;29;20091;-66
2022/10/18 03:13:23;;;;;;;22.98;13.63;;;;;;;;;;9922399;29;20111;-66
2022/10/18 03:18:21;;;;;;;6.20;5.25;;;;;;;;;;9924066;29;20076;-65
2022/10/18 03:23:20;;;;;;;5.63;4.60;;;;;;;;;;9928068;29;20151;-65
2022/10/18 03:28:19;;;;;;;7.35;4.88;;;;;;;;;;9926689;29;20081;-65
2022/10/18 03:33:17;;;;;;;6.88;4.50;;;;;;;;;;9927530;29;20490;-65
2022/10/18 03:38:16;;;;;;;6.47;4.95;;;;;;;;;;9925347;29;20076;-65
2022/10/18 03:43:14;;;;;;;9.88;5.20;;;;;;;;;;9927712;29;20092;-65
2022/10/18 03:48:13;;;;;;;8.05;5.07;;;;;;;;;;9927284;29;20088;-65
2022/10/18 03:53:12;;;;;;;9.40;4.60;;;;;;;;;;9927736;29;20155;-66
2022/10/18 03:58:10;;;;;;;7.88;4.55;;;;;;;;;;9927403;29;20076;-66
2022/10/18 04:03:08;;;;;;;6.72;4.65;;;;;;;;;;9925421;29;20068;-66
2022/10/18 04:08:11;;;;;;;5.25;4.65;;;;;;;;;;9925307;29;20466;-67
2022/10/18 04:13:10;;;;;;;7.18;5.20;;;;;;;;;;9925150;29;20506;-66
2022/10/18 04:18:08;;;;;;;7.93;4.55;;;;;;;;;;9929380;29;20494;-67
2022/10/18 04:23:07;;;;;;;4.93;4.32;;;;;;;;;;9931898;29;20080;-66
2022/10/18 04:28:06;;;;;;;5.15;4.40;;;;;;;;;;9929957;29;20154;-65
2022/10/18 04:33:04;;;;;;;11.63;5.40;;;;;;;;;;9934598;29;20534;-66
2022/10/18 04:38:02;;;;;;;7.75;5.35;;;;;;;;;;9931168;29;20493;-66
2022/10/18 04:43:01;;;;;;;7.47;5.72;;;;;;;;;;9916868;29;20087;-64
2022/10/18 04:48:00;;;;;;;6.55;5.32;;;;;;;;;;9916927;29;20099;-65
2022/10/18 04:52:58;;;;;;;10.70;6.75;;;;;;;;;;9920464;29;20080;-65
2022/10/18 04:57:56;;;;;;;8.25;6.22;;;;;;;;;;9919706;29;20080;-67
2022/10/18 05:02:57;;;;;;;8.35;6.75;;;;;;;;;;9935551;29;20077;-65
2022/10/18 05:07:56;;;;;;;7.72;5.38;;;;;;;;;;9928626;29;20538;-66
2022/10/18 05:12:54;;;;;;;9.95;5.57;;;;;;;;;;9931613;29;20085;-67
2022/10/18 05:17:52;;;;;;;9.30;5.60;;;;;;;;;;9923655;29;20088;-66
2022/10/18 05:22:52;;;;;;;10.93;6.53;;;;;;;;;;9924118;29;20533;-66
2022/10/18 05:27:50;;;;;;;6.22;5.63;;;;;;;;;;9923590;29;20081;-66
2022/10/18 05:32:48;;;;;;;6.15;4.82;;;;;;;;;;9924414;29;20083;-66
2022/10/18 05:37:46;;;;;;;6.75;5.07;;;;;;;;;;9922656;29;20087;-66
2022/10/18 05:42:46;;;;;;;8.57;4.80;;;;;;;;;;9925102;29;20077;-65
2022/10/18 05:47:44;;;;;;;7.60;6.32;;;;;;;;;;9922411;29;20080;-65
2022/10/18 05:52:42;;;;;;;15.10;6.50;;;;;;;;;;9923880;29;20081;-65
2022/10/18 05:57:41;;;;;;;8.98;5.88;;;;;;;;;;9930658;29;20084;-66
2022/10/18 06:02:40;;;;;;;10.05;5.88;;;;;;;;;;9922413;29;20160;-65
2022/10/18 06:07:38;;;;;;;9.15;6.15;;;;;;;;;;9922162;29;20087;-65
2022/10/18 06:12:37;;;;;;;9.50;5.63;;;;;;;;;;9932036;29;20577;-66
2022/10/18 06:17:35;;;;;;;8.00;6.15;;;;;;;;;;9932521;29;20186;-64
2022/10/18 06:22:35;;;;;;;8.10;6.50;;;;;;;;;;9933342;29;20522;-66
2022/10/18 06:27:33;;;;;;;9.73;5.95;;;;;;;;;;9939234;29;20068;-66
2022/10/18 06:32:32;;;;;;;12.35;7.95;;;;;;;;;;9943238;29;20106;-65
2022/10/18 06:37:30;;;;;;;10.38;6.95;;;;;;;;;;9926331;29;20084;-65
2022/10/18 06:42:30;;;;;;;7.50;6.35;;;;;;;;;;9928406;29;20072;-67
2022/10/18 06:47:29;;;;;;;11.55;5.88;;;;;;;;;;9924833;29;20053;-66
2022/10/18 06:52:27;;;;;;;13.15;6.43;;;;;;;;;;9921658;29;20083;-65
2022/10/18 06:57:26;;;;;;;20.88;11.32;;;;;;;;;;9919431;29;20140;-65
2022/10/18 07:02:25;;;;;;;33.17;15.80;;;;;;;;;;9920300;29;20146;-66
2022/10/18 07:07:23;;;;;;;36.53;14.20;;;;;;;;;;9925468;29;20076;-66
2022/10/18 07:12:21;;;;;;;33.33;10.88;;;;;;;;;;9925182;29;20481;-66
2022/10/18 07:17:20;;;;;;;29.02;14.23;;;;;;;;;;9925445;29;20080;-66
2022/10/18 07:22:19;;;;;;;18.58;8.50;;;;;;;;;;9925587;29;20498;-66
2022/10/18 07:27:17;;;;;;;18.77;8.73;;;;;;;;;;9926456;29;20072;-66
2022/10/18 07:32:16;;;;;;;16.27;9.43;;;;;;;;;;9925677;29;20083;-66
2022/10/18 07:37:16;;;;;;;24.23;9.63;;;;;;;;;;9926830;29;20503;-65
2022/10/18 07:42:16;;;;;;;25.23;10.20;;;;;;;;;;9926104;29;20080;-66
2022/10/18 07:47:15;;;;;;;20.13;9.98;;;;;;;;;;9929601;29;20072;-67
2022/10/18 07:52:13;;;;;;;13.00;8.10;;;;;;;;;;9925452;29;20510;-66
2022/10/18 07:57:11;;;;;;;25.13;9.77;;;;;;;;;;9925677;29;20357;-67
2022/10/18 08:02:11;;;;;;;18.27;9.98;;;;;;;;;;9924314;29;20084;-66
2022/10/18 08:52:55;;;;;;;15.27;7.78;;;;;;;;;;10304148;27;20382;-63
2022/10/18 08:57:53;;;;;;;13.68;7.25;;;;;;;;;;10239518;28;20061;-64
2022/10/18 09:03:01;;;;;;;18.08;7.35;;;;;;;;;;10239423;28;20061;-62
2022/10/18 09:08:22;;;;;;;12.32;8.07;;;;;;;;;;10268510;28;20087;-62
2022/10/18 09:13:31;;;;;;;21.25;7.80;;;;;;;;;;10267495;28;20084;-62
2022/10/18 09:18:39;;;;;;;13.52;6.80;;;;;;;;;;10268664;28;20049;-63
2022/10/18 09:23:44;;;;;;;9.63;6.70;;;;;;;;;;10253927;28;20406;-65
2022/10/18 09:28:46;;;;;;;11.50;8.15;;;;;;;;;;10268015;28;20087;-64
2022/10/18 09:33:48;;;;;;;21.83;7.55;;;;;;;;;;10266658;28;20075;-64
2022/10/18 09:38:48;;;;;;;12.10;7.57;;;;;;;;;;10266729;28;20045;-65
2022/10/18 09:43:49;;;;;;;9.10;7.07;;;;;;;;;;10266510;28;20077;-64
2022/10/18 09:48:50;;;;;;;11.27;7.22;;;;;;;;;;10266720;28;20088;-66
2022/10/18 09:54:06;;;;;;;12.60;7.22;;;;;;;;;;10239987;28;20069;-64
2022/10/18 09:59:09;;;;;;;18.23;9.38;;;;;;;;;;10234757;28;20046;-64
2022/10/18 10:04:07;;;;;;;14.85;7.30;;;;;;;;;;10218235;28;20049;-64
2022/10/18 10:09:07;;;;;;;11.73;7.57;;;;;;;;;;10238646;28;20426;-63
2022/10/18 10:14:15;;;;;;;13.32;7.32;;;;;;;;;;10239258;28;20080;-64
2022/10/18 10:19:19;;;;;;;10.73;7.32;;;;;;;;;;10231580;28;20085;-65
2022/10/18 10:24:23;;;;;;;13.43;8.27;;;;;;;;;;10209969;28;20495;-63
2022/10/18 10:29:46;;;;;;;15.65;8.30;;;;;;;;;;10226040;28;20068;-63
2022/10/18 10:34:45;;;;;;;11.50;7.32;;;;;;;;;;10217103;28;20076;-64
2022/10/18 10:39:44;;;;;;;18.40;7.85;;;;;;;;;;10237456;28;20057;-64
2022/10/18 10:45:02;;;;;;;11.40;7.30;;;;;;;;;;10237561;28;20045;-63
2022/10/18 10:50:09;;;;;;;15.38;8.77;;;;;;;;;;10224026;28;20082;-62
2022/10/18 10:55:15;;;;;;;17.70;8.70;;;;;;;;;;10208345;28;20097;-63
2022/10/18 11:00:36;;;;;;;14.48;9.30;;;;;;;;;;10208487;28;20081;-62
2022/10/18 11:05:43;;;;;;;17.98;10.45;;;;;;;;;;10224254;28;20086;-62
2022/10/18 11:10:47;;;;;;;24.85;10.10;;;;;;;;;;10236275;28;20065;-63
2022/10/18 11:15:47;;;;;;;22.02;9.68;;;;;;;;;;10218446;28;20073;-62
2022/10/18 11:20:49;;;;;;;9.70;8.20;;;;;;;;;;10226256;28;20064;-62
2022/10/18 11:25:56;;;;;;;13.25;7.35;;;;;;;;;;10235464;28;20502;-63
2022/10/18 11:30:59;;;;;;;14.52;7.95;;;;;;;;;;10216464;28;20069;-62
2022/10/18 11:36:04;;;;;;;12.15;7.22;;;;;;;;;;10206870;28;20069;-65
2022/10/18 11:41:23;;;;;;;13.32;8.07;;;;;;;;;;10227596;28;20085;-64
2022/10/18 11:46:26;;;;;;;10.98;7.47;;;;;;;;;;10231900;28;20058;-62
2022/10/18 11:51:29;;;;;;;10.30;7.68;;;;;;;;;;10234612;28;20080;-63
2022/10/18 11:56:46;;;;;;;10.40;6.45;;;;;;;;;;10209161;28;20510;-63
2022/10/18 12:01:50;;;;;;;9.93;6.35;;;;;;;;;;10206415;28;20537;-63
2022/10/18 12:06:52;;;;;;;11.63;5.97;;;;;;;;;;10233973;28;20140;-62
2022/10/18 12:11:52;;;;;;;10.35;6.43;;;;;;;;;;10234876;28;20084;-63
2022/10/18 12:16:55;;;;;;;14.18;6.22;;;;;;;;;;10233236;28;20442;-62
2022/10/18 12:22:18;;;;;;;11.18;6.50;;;;;;;;;;10222861;28;20073;-63
2022/10/18 12:27:17;;;;;;;13.52;7.05;;;;;;;;;;10234534;28;20467;-63
2022/10/18 12:32:17;;;;;;;18.80;10.77;;;;;;;;;;10204028;28;20529;-62
2022/10/18 12:37:39;;;;;;;10.90;5.80;;;;;;;;;;10233634;28;20040;-63
2022/10/18 12:42:42;;;;;;;10.70;5.75;;;;;;;;;;10247810;28;20049;-63
2022/10/18 12:47:40;;;;;;;12.15;5.43;;;;;;;;;;10233690;28;20069;-64
2022/10/18 12:52:38;;;;;;;9.07;5.78;;;;;;;;;;10233179;28;20087;-64
2022/10/18 12:57:55;;;;;;;8.20;5.18;;;;;;;;;;10232543;28;20057;-62
2022/10/18 13:03:25;;;;;;;5.40;4.70;;;;;;;;;;10232282;28;20419;-62
2022/10/18 13:08:41;;;;;;;7.10;4.50;;;;;;;;;;10232067;28;20038;-61
2022/10/18 13:13:45;;;;;;;9.25;4.63;;;;;;;;;;10204342;28;20080;-63
2022/10/18 13:18:50;;;;;;;12.30;5.22;;;;;;;;;;10204251;28;20038;-63
2022/10/18 13:24:06;;;;;;;8.48;4.18;;;;;;;;;;10204918;28;20069;-62
2022/10/18 13:29:09;;;;;;;7.55;4.45;;;;;;;;;;10217210;28;20056;-62
2022/10/18 13:34:23;;;;;;;6.35;4.47;;;;;;;;;;10226865;28;20077;-62
2022/10/18 13:39:22;;;;;;;9.80;5.10;;;;;;;;;;10240607;28;20072;-62
2022/10/18 13:44:27;;;;;;;10.18;4.45;;;;;;;;;;10240062;28;20056;-63
2022/10/18 13:49:31;;;;;;;6.78;4.85;;;;;;;;;;10240112;28;20084;-62
2022/10/18 13:54:29;;;;;;;;;;;;;;;;;;10240764;28;20065;-63
2022/10/18 13:59:32;;;;;;;10.40;4.68;;;;;;;;;;10239501;28;19967;-62
2022/10/18 14:04:47;;;;;;;7.55;4.75;;;;;;;;;;10229766;28;20065;-62
2022/10/18 14:09:47;;;;;;;8.85;4.55;;;;;;;;;;10210871;28;20502;-63
2022/10/18 14:14:53;;;;;;;27.13;5.23;;;;;;;;;;10221893;28;20129;-63
2022/10/18 14:19:56;;;;;;;7.18;5.07;;;;;;;;;;10238720;28;20053;-63
2022/10/18 14:24:55;;;;;;;10.57;3.95;;;;;;;;;;10229533;28;20081;-62
2022/10/18 14:30:07;;;;;;;6.32;4.35;;;;;;;;;;10221988;28;20088;-62
2022/10/18 14:35:15;;;;;;;11.77;3.45;;;;;;;;;;10224877;28;20050;-60
2022/10/18 14:40:34;;;;;;;6.57;4.72;;;;;;;;;;10226706;28;20038;-63
2022/10/18 14:45:33;;;;;;;6.65;5.50;;;;;;;;;;10237591;28;20073;-62
2022/10/18 14:50:32;;;;;;;13.98;6.97;;;;;;;;;;10237405;28;20081;-62
2022/10/18 14:55:31;;;;;;;9.10;6.05;;;;;;;;;;10237337;28;20087;-62
2022/10/18 15:00:33;;;;;;;11.85;7.63;;;;;;;;;;10220908;28;20069;-63
2022/10/18 15:05:33;;;;;;;14.57;6.90;;;;;;;;;;10209660;28;20499;-63
2022/10/18 15:10:32;;;;;;;18.33;7.63;;;;;;;;;;10207617;28;20073;-62
2022/10/18 15:15:32;;;;;;;13.73;7.05;;;;;;;;;;10208812;28;20104;-62
2022/10/18 15:20:31;;;;;;;20.83;11.85;;;;;;;;;;10208347;28;20076;-63
2022/10/18 15:25:33;;;;;;;29.75;17.33;;;;;;;;;;10223410;28;20046;-62
2022/10/18 15:30:37;;;;;;;22.20;12.03;;;;;;;;;;10267042;28;20100;-63
2022/10/18 15:35:36;;;;;;;20.75;10.68;;;;;;;;;;10236276;28;20041;-62
2022/10/18 15:40:37;;;;;;;14.38;10.70;;;;;;;;;;10218962;28;20061;-62
2022/10/18 15:45:37;;;;;;;19.55;11.43;;;;;;;;;;10207121;28;20527;-62
2022/10/18 15:50:37;;;;;;;20.73;12.95;;;;;;;;;;10205991;28;20093;-63
2022/10/18 15:55:56;;;;;;;16.42;10.10;;;;;;;;;;10206702;28;20041;-63
2022/10/18 16:00:57;;;;;;;12.85;8.93;;;;;;;;;;10225728;28;20045;-62
2022/10/18 16:05:58;;;;;;;17.27;10.45;;;;;;;;;;10235822;28;20426;-63
2022/10/18 16:10:57;;;;;;;24.63;12.20;;;;;;;;;;10235086;28;20514;-63
2022/10/18 16:15:58;;;;;;;17.02;9.60;;;;;;;;;;10234964;28;20048;-63
2022/10/18 16:20:56;;;;;;;16.23;6.90;;;;;;;;;;10234460;28;20085;-63
2022/10/18 16:25:55;;;;;;;11.25;6.82;;;;;;;;;;10234960;28;20056;-62
2022/10/18 16:30:54;;;;;;;11.27;7.95;;;;;;;;;;10233342;28;20109;-63
2022/10/18 16:35:54;;;;;;;11.55;9.93;;;;;;;;;;10220886;28;20072;-63
2022/10/18 16:40:52;;;;;;;19.63;13.05;;;;;;;;;;10209328;28;20428;-64
2022/10/18 16:45:52;;;;;;;18.15;13.38;;;;;;;;;;10205859;28;20502;-63
2022/10/18 16:50:51;;;;;;;17.40;12.18;;;;;;;;;;10203955;28;20536;-63
2022/10/18 16:55:53;;;;;;;18.02;11.93;;;;;;;;;;10205260;28;20073;-62
2022/10/18 17:00:51;;;;;;;13.55;10.32;;;;;;;;;;10207388;28;20073;-62
2022/10/18 17:05:50;;;;;;;10.75;8.35;;;;;;;;;;10212262;28;20092;-61
2022/10/18 17:10:48;;;;;;;19.27;10.05;;;;;;;;;;10213538;28;20080;-62
2022/10/18 17:15:48;;;;;;;10.32;7.32;;;;;;;;;;10213433;28;20068;-62
2022/10/18 17:20:46;;;;;;;13.90;7.78;;;;;;;;;;10212464;28;20066;-64
2022/10/18 17:25:45;;;;;;;9.00;6.80;;;;;;;;;;10211621;28;20057;-63
2022/10/18 17:31:07;;;;;;;13.65;9.90;;;;;;;;;;10212318;28;20076;-62
2022/10/18 17:36:05;;;;;;;11.23;10.07;;;;;;;;;;10214913;28;20078;-63
2022/10/18 17:41:05;;;;;;;13.52;12.00;;;;;;;;;;10207235;28;20467;-63
2022/10/18 17:46:07;;;;;;;15.32;10.35;;;;;;;;;;10217216;28;20453;-63
2022/10/18 17:51:10;;;;;;;11.00;7.97;;;;;;;;;;10239637;28;20199;-62
2022/10/18 17:56:08;;;;;;;19.95;11.93;;;;;;;;;;10239292;28;20045;-64
2022/10/18 18:01:10;;;;;;;28.75;19.20;;;;;;;;;;10217507;28;20046;-61
2022/10/18 18:06:17;;;;;;;20.05;12.25;;;;;;;;;;10219288;28;20088;-64
2022/10/18 18:11:16;;;;;;;18.30;10.35;;;;;;;;;;10216878;28;20400;-63
2022/10/18 18:16:15;;;;;;;15.70;8.95;;;;;;;;;;10212613;28;20419;-62
2022/10/18 18:21:14;;;;;;;10.32;7.82;;;;;;;;;;10228757;28;20079;-62
2022/10/18 18:26:14;;;;;;;15.18;8.45;;;;;;;;;;10221833;28;20073;-62
2022/10/18 18:31:14;;;;;;;18.27;9.27;;;;;;;;;;10227994;28;20088;-63
2022/10/18 18:36:12;;;;;;;18.90;10.55;;;;;;;;;;10227670;28;20069;-62
2022/10/18 18:41:12;;;;;;;14.65;9.63;;;;;;;;;;10222567;28;20596;-62
2022/10/18 18:46:12;;;;;;;11.35;9.38;;;;;;;;;;10217525;28;20061;-62
2022/10/18 18:51:11;;;;;;;16.77;11.43;;;;;;;;;;10230665;28;20064;-63
2022/10/18 18:56:12;;;;;;;18.38;11.38;;;;;;;;;;10237532;28;20060;-62
2022/10/18 19:01:13;;;;;;;16.52;9.77;;;;;;;;;;10235446;28;20459;-62
2022/10/18 19:06:14;;;;;;;11.18;8.65;;;;;;;;;;10224132;28;20076;-63
2022/10/18 19:11:13;;;;;;;18.88;11.45;;;;;;;;;;10225964;28;20073;-61
2022/10/18 19:16:20;;;;;;;14.38;8.48;;;;;;;;;;10225292;28;20074;-62
2022/10/18 19:21:19;;;;;;;13.88;10.25;;;;;;;;;;10223268;28;20049;-63
2022/10/18 19:26:23;;;;;;;24.92;13.82;;;;;;;;;;10236239;28;20057;-61
2022/10/18 19:31:23;;;;;;;10.95;9.35;;;;;;;;;;10233004;28;20052;-62
2022/10/18 19:36:21;;;;;;;13.23;7.93;;;;;;;;;;10232711;28;20483;-63
2022/10/18 19:41:23;;;;;;;9.20;7.72;;;;;;;;;;10210459;28;20530;-61
2022/10/18 19:46:27;;;;;;;11.38;8.15;;;;;;;;;;10218583;28;20068;-62
2022/10/18 19:51:27;;;;;;;13.68;6.85;;;;;;;;;;10225515;28;20077;-63
2022/10/18 19:56:26;;;;;;;10.27;6.57;;;;;;;;;;10235499;28;20514;-62
2022/10/18 20:01:24;;;;;;;9.98;6.63;;;;;;;;;;10235466;28;20083;-62
2022/10/18 20:06:26;;;;;;;17.20;6.78;;;;;;;;;;10234176;28;20077;-64
2022/10/18 20:11:25;;;;;;;8.68;6.80;;;;;;;;;;10211464;28;20143;-62
2022/10/18 20:16:24;;;;;;;11.32;6.63;;;;;;;;;;10208321;28;20096;-61
2022/10/18 20:21:28;;;;;;;11.07;7.03;;;;;;;;;;10210910;28;20061;-62
2022/10/18 20:26:27;;;;;;;7.57;5.80;;;;;;;;;;10205653;28;20108;-62
2022/10/18 20:31:26;;;;;;;8.93;6.70;;;;;;;;;;10208880;28;20042;-62
2022/10/18 20:36:25;;;;;;;7.18;6.40;;;;;;;;;;10201954;28;20077;-62
2022/10/18 20:41:26;;;;;;;16.42;11.43;;;;;;;;;;10227202;28;20076;-62
2022/10/18 20:46:24;;;;;;;13.27;7.22;;;;;;;;;;10231109;28;20085;-63
2022/10/18 20:51:24;;;;;;;10.02;6.40;;;;;;;;;;10207254;28;20085;-62
2022/10/18 20:56:25;;;;;;;7.75;5.15;;;;;;;;;;10211071;28;20073;-63
2022/10/18 21:01:26;;;;;;;9.05;5.50;;;;;;;;;;10202168;28;20081;-61
2022/10/18 21:06:25;;;;;;;10.50;6.82;;;;;;;;;;10213434;28;20081;-62
2022/10/18 21:11:24;;;;;;;9.60;6.15;;;;;;;;;;10207194;28;20069;-63
2022/10/18 21:16:23;;;;;;;10.77;6.43;;;;;;;;;;10204812;28;20088;-62
2022/10/18 21:21:25;;;;;;;10.05;6.78;;;;;;;;;;10229187;28;20046;-62
2022/10/18 21:26:24;;;;;;;13.18;7.72;;;;;;;;;;10231724;28;20469;-63
2022/10/18 21:31:23;;;;;;;12.38;6.90;;;;;;;;;;10210627;28;20038;-61
2022/10/18 21:36:24;;;;;;;11.32;6.47;;;;;;;;;;10201872;28;20074;-62
2022/10/18 21:41:23;;;;;;;10.07;6.53;;;;;;;;;;10205717;28;20077;-62
2022/10/18 21:46:22;;;;;;;7.75;5.72;;;;;;;;;;10204495;28;20511;-63
2022/10/18 21:51:21;;;;;;;6.97;5.32;;;;;;;;;;10221670;28;20064;-63
2022/10/18 21:56:21;;;;;;;13.35;6.13;;;;;;;;;;10216768;28;20088;-64
2022/10/18 22:01:20;;;;;;;7.05;4.90;;;;;;;;;;10210290;28;20073;-62
2022/10/18 22:06:19;;;;;;;9.00;6.18;;;;;;;;;;10211713;28;20264;-61
2022/10/18 22:11:18;;;;;;;7.53;5.25;;;;;;;;;;10234044;28;20049;-61
2022/10/18 22:16:17;;;;;;;10.52;5.40;;;;;;;;;;10239602;28;20521;-61
2022/10/18 22:21:16;;;;;;;9.43;4.65;;;;;;;;;;10216162;28;20065;-62
2022/10/18 22:26:16;;;;;;;8.25;4.55;;;;;;;;;;10233072;28;20084;-62
2022/10/18 22:31:15;;;;;;;5.68;4.75;;;;;;;;;;10238678;28;20041;-62
2022/10/18 22:36:15;;;;;;;9.68;4.80;;;;;;;;;;10215334;28;20077;-62
2022/10/18 22:41:13;;;;;;;7.15;4.68;;;;;;;;;;10203260;28;20070;-61
2022/10/18 22:46:13;;;;;;;5.93;5.00;;;;;;;;;;10231966;28;20064;-61
2022/10/18 22:51:11;;;;;;;6.55;4.85;;;;;;;;;;10237759;28;20061;-62
2022/10/18 22:56:12;;;;;;;7.97;5.38;;;;;;;;;;10216506;28;20066;-62
2022/10/18 23:01:12;;;;;;;11.85;5.38;;;;;;;;;;10209506;28;20069;-61
2022/10/18 23:06:20;;;;;;;8.10;5.68;;;;;;;;;;10212288;28;20057;-63
2022/10/18 23:11:20;;;;;;;10.18;4.80;;;;;;;;;;10210982;28;20076;-63
2022/10/18 23:16:19;;;;;;;5.75;4.28;;;;;;;;;;10210666;28;20086;-61
2022/10/18 23:21:18;;;;;;;8.88;4.80;;;;;;;;;;10208841;28;20564;-62
2022/10/18 23:26:17;;;;;;;5.72;4.10;;;;;;;;;;10220407;28;20070;-62
2022/10/18 23:31:17;;;;;;;11.27;5.28;;;;;;;;;;10205404;28;20084;-62
2022/10/18 23:36:16;;;;;;;6.00;4.88;;;;;;;;;;10211193;28;20088;-62
2022/10/18 23:41:14;;;;;;;11.45;5.47;;;;;;;;;;10204554;28;20104;-62
2022/10/18 23:46:13;;;;;;;8.02;4.90;;;;;;;;;;10207920;28;20046;-62
2022/10/18 23:51:12;;;;;;;6.15;4.95;;;;;;;;;;10206819;28;20097;-62
2022/10/18 23:56:11;;;;;;;8.50;4.85;;;;;;;;;;10211867;28;20459;-62
